createdAt,value
2019-06-01T00:00:38.039Z,46.93
2019-06-01T00:03:22.491Z,48.77
2019-06-01T00:06:03.085Z,47.80
2019-06-01T00:08:57.569Z,46.03
2019-06-01T00:14:35.220Z,49.18
2019-06-01T00:17:10.885Z,48.16
2019-06-01T00:19:46.182Z,49.82
2019-06-01T00:22:21.771Z,49.51
2019-06-01T00:24:56.967Z,46.96
2019-06-01T00:27:32.592Z,48.02
2019-06-01T00:30:07.403Z,45.86
2019-06-01T00:32:42.989Z,47.66
2019-06-01T00:35:17.256Z,44.21
2019-06-01T00:37:51.812Z,44.83
2019-06-01T00:40:27.488Z,46.74
2019-06-01T00:43:02.877Z,45.47
2019-06-01T00:45:38.066Z,44.25
2019-06-01T00:48:11.972Z,46.26
2019-06-01T00:50:46.780Z,47.14
2019-06-01T00:53:22.225Z,46.99
2019-06-01T00:55:57.949Z,43.69
2019-06-01T00:58:31.731Z,42.86
2019-06-01T01:01:06.029Z,43.65
2019-06-01T01:03:42.114Z,45.90
2019-06-01T01:06:16.018Z,42.09
2019-06-01T01:08:50.946Z,41.57
2019-06-01T01:11:26.469Z,42.03
2019-06-01T01:14:00.467Z,42.65
2019-06-01T01:16:34.314Z,43.14
2019-06-01T01:19:08.226Z,41.98
2019-06-01T01:21:45.887Z,41.88
2019-06-01T01:24:21.135Z,41.40
2019-06-01T01:26:54.937Z,42.04
2019-06-01T01:29:29.004Z,43.19
2019-06-01T01:32:02.872Z,39.95
2019-06-01T01:34:38.429Z,40.29
2019-06-01T01:37:13.604Z,40.13
2019-06-01T01:39:48.010Z,38.97
2019-06-01T01:42:23.079Z,39.59
2019-06-01T01:44:58.653Z,39.90
2019-06-01T01:47:32.438Z,40.94
2019-06-01T01:50:07.873Z,39.75
2019-06-01T01:52:41.882Z,39.81
2019-06-01T01:55:17.591Z,39.78
2019-06-01T01:57:53.279Z,39.43
2019-06-01T02:00:54.641Z,37.71
2019-06-01T02:03:28.758Z,37.91
2019-06-01T02:06:04.110Z,37.51
2019-06-01T02:08:39.837Z,40.29
2019-06-01T02:11:13.858Z,39.55
2019-06-01T02:13:49.024Z,40.98
2019-06-01T02:16:23.229Z,36.49
2019-06-01T02:19:00.423Z,35.82
2019-06-01T02:21:35.357Z,35.39
2019-06-01T02:24:13.490Z,38.56
2019-06-01T02:26:48.649Z,39.73
2019-06-01T02:29:24.180Z,39.12
2019-06-01T02:31:59.133Z,40.91
2019-06-01T02:34:33.152Z,37.35
2019-06-01T02:37:07.022Z,38.81
2019-06-01T02:39:43.372Z,37.84
2019-06-01T02:42:17.630Z,38.01
2019-06-01T02:44:51.853Z,36.05
2019-06-01T02:47:25.614Z,40.06
2019-06-01T02:50:04.484Z,37.75
2019-06-01T02:52:36.982Z,35.67
2019-06-01T02:55:20.287Z,37.49
2019-06-01T02:57:52.822Z,34.29
2019-06-01T03:01:08.659Z,36.78
2019-06-01T03:03:43.974Z,37.26
2019-06-01T03:06:19.447Z,36.14
2019-06-01T03:08:57.677Z,35.71
2019-06-01T03:11:40.420Z,37.33
2019-06-01T03:14:16.141Z,33.22
2019-06-01T03:16:54.194Z,34.88
2019-06-01T03:19:28.787Z,35.78
2019-06-01T03:22:08.631Z,34.53
2019-06-01T03:24:43.575Z,33.18
2019-06-01T03:27:22.054Z,32.61
2019-06-01T03:30:00.244Z,32.36
2019-06-01T03:32:37.334Z,32.66
2019-06-01T03:35:13.097Z,32.99
2019-06-01T03:37:48.288Z,33.14
2019-06-01T03:40:24.009Z,33.51
2019-06-01T03:43:00.167Z,33.41
2019-06-01T03:45:35.184Z,33.53
2019-06-01T03:48:08.946Z,32.86
2019-06-01T03:50:44.150Z,31.63
2019-06-01T03:53:19.526Z,30.66
2019-06-01T03:55:53.524Z,32.63
2019-06-01T03:58:28.665Z,31.44
2019-06-01T04:01:03.149Z,29.80
2019-06-01T04:03:38.509Z,31.19
2019-06-01T04:06:13.436Z,31.67
2019-06-01T04:08:48.369Z,30.10
2019-06-01T04:11:23.112Z,31.29
2019-06-01T04:13:56.764Z,31.08
2019-06-01T04:16:30.822Z,28.56
2019-06-01T04:19:06.273Z,28.92
2019-06-01T04:21:41.625Z,27.60
2019-06-01T04:24:15.515Z,27.25
2019-06-01T04:26:49.258Z,30.09
2019-06-01T04:29:22.913Z,29.74
2019-06-01T04:31:56.390Z,30.37
2019-06-01T04:34:31.707Z,30.16
2019-06-01T04:37:05.504Z,29.39
2019-06-01T04:39:40.924Z,28.89
2019-06-01T04:42:15.985Z,28.48
2019-06-01T04:44:49.737Z,26.99
2019-06-01T04:47:23.360Z,25.73
2019-06-01T04:50:16.589Z,28.22
2019-06-01T04:52:52.326Z,26.34
2019-06-01T04:55:26.776Z,26.10
2019-06-01T04:58:04.627Z,26.39
2019-06-01T05:00:38.386Z,26.82
2019-06-01T05:03:13.442Z,27.21
2019-06-01T05:05:48.394Z,27.80
2019-06-01T05:08:22.579Z,26.22
2019-06-01T05:10:56.418Z,24.69
2019-06-01T05:13:31.908Z,26.09
2019-06-01T05:16:07.884Z,27.12
2019-06-01T05:18:41.763Z,28.09
2019-06-01T05:21:15.607Z,24.31
2019-06-01T05:23:51.657Z,26.39
2019-06-01T05:26:25.682Z,25.10
2019-06-01T05:28:59.253Z,24.65
2019-06-01T05:31:34.351Z,26.55
2019-06-01T05:34:09.717Z,25.55
2019-06-01T05:36:45.088Z,26.83
2019-06-01T05:39:18.907Z,25.75
2019-06-01T05:41:54.384Z,27.24
2019-06-01T05:44:27.738Z,25.31
2019-06-01T05:47:02.878Z,23.97
2019-06-01T05:49:36.389Z,23.88
2019-06-01T05:52:12.404Z,24.20
2019-06-01T05:54:48.178Z,24.17
2019-06-01T05:57:23.171Z,24.41
2019-06-01T05:59:56.546Z,23.20
2019-06-01T06:02:30.453Z,23.40
2019-06-01T06:05:06.089Z,26.14
2019-06-01T06:07:39.816Z,26.14
2019-06-01T06:10:13.907Z,22.98
2019-06-01T06:12:49.318Z,24.05
2019-06-01T06:15:41.402Z,23.83
2019-06-01T06:18:15.786Z,24.82
2019-06-01T06:20:49.741Z,23.06
2019-06-01T06:23:23.228Z,25.24
2019-06-01T06:25:57.137Z,27.57
2019-06-01T06:28:51.538Z,27.71
2019-06-01T06:31:25.327Z,26.87
2019-06-01T06:34:00.331Z,25.74
2019-06-01T06:36:34.150Z,28.31
2019-06-01T06:39:11.026Z,25.86
2019-06-01T06:41:46.273Z,29.06
2019-06-01T06:44:21.279Z,24.86
2019-06-01T06:46:56.741Z,27.53
2019-06-01T06:49:30.983Z,23.13
2019-06-01T06:52:05.635Z,26.40
2019-06-01T06:54:39.345Z,25.76
2019-06-01T06:57:14.296Z,23.87
2019-06-01T06:59:49.626Z,24.40
2019-06-01T07:02:23.150Z,24.34
2019-06-01T07:04:57.028Z,27.34
2019-06-01T07:07:32.108Z,23.85
2019-06-01T07:10:06.206Z,24.01
2019-06-01T07:12:39.928Z,27.60
2019-06-01T07:15:15.542Z,27.55
2019-06-01T07:17:49.020Z,25.27
2019-06-01T07:20:23.696Z,25.40
2019-06-01T07:22:59.171Z,23.02
2019-06-01T07:25:34.232Z,27.41
2019-06-01T07:28:09.345Z,26.66
2019-06-01T07:30:50.502Z,25.41
2019-06-01T07:33:20.360Z,23.44
2019-06-01T07:35:55.389Z,24.47
2019-06-01T07:38:30.752Z,25.25
2019-06-01T07:41:05.160Z,25.85
2019-06-01T07:43:41.045Z,25.13
2019-06-01T07:46:14.918Z,25.13
2019-06-01T07:48:56.770Z,25.13
2019-06-01T07:51:32.173Z,27.36
2019-06-01T07:54:08.306Z,25.61
2019-06-01T07:56:43.624Z,26.75
2019-06-01T07:59:17.562Z,25.06
2019-06-01T08:01:51.256Z,24.67
2019-06-01T08:04:28.091Z,26.21
2019-06-01T08:07:01.318Z,26.21
2019-06-01T08:09:35.348Z,25.97
2019-06-01T08:12:17.199Z,24.17
2019-06-01T08:14:50.945Z,22.82
2019-06-01T08:17:28.134Z,24.75
2019-06-01T08:20:03.345Z,25.93
2019-06-01T08:22:38.576Z,25.61
2019-06-01T08:25:32.783Z,24.04
2019-06-01T08:28:06.949Z,26.65
2019-06-01T08:30:40.598Z,25.54
2019-06-01T08:33:14.739Z,25.96
2019-06-01T08:35:50.811Z,25.75
2019-06-01T08:38:25.564Z,25.79
2019-06-01T08:40:59.996Z,27.02
2019-06-01T08:43:34.247Z,27.81
2019-06-01T08:46:09.838Z,26.88
2019-06-01T08:48:44.876Z,26.78
2019-06-01T08:51:18.739Z,27.79
2019-06-01T08:53:54.291Z,27.03
2019-06-01T08:56:30.191Z,27.03
2019-06-01T08:59:28.265Z,28.41
2019-06-01T09:02:02.050Z,27.29
2019-06-01T09:04:37.319Z,27.79
2019-06-01T09:07:10.960Z,28.03
2019-06-01T09:09:52.171Z,26.86
2019-06-01T09:12:27.284Z,27.37
2019-06-01T09:15:02.887Z,28.66
2019-06-01T09:17:36.597Z,28.32
2019-06-01T09:20:12.375Z,27.98
2019-06-01T09:22:48.124Z,28.33
2019-06-01T09:25:21.021Z,30.22
2019-06-01T09:27:54.968Z,29.63
2019-06-01T09:30:29.827Z,28.67
2019-06-01T09:33:05.001Z,29.67
2019-06-01T09:35:54.236Z,29.12
2019-06-01T09:38:16.992Z,29.12
2019-06-01T09:43:35.604Z,29.22
2019-06-01T09:46:12.649Z,30.34
2019-06-01T09:48:47.832Z,29.01
2019-06-01T09:51:21.503Z,30.17
2019-06-01T09:53:55.783Z,29.26
2019-06-01T09:56:29.718Z,30.20
2019-06-01T09:59:05.824Z,28.98
2019-06-01T10:01:39.806Z,29.32
2019-06-01T10:04:13.436Z,29.92
2019-06-01T10:06:48.783Z,29.91
2019-06-01T10:09:22.373Z,28.84
2019-06-01T10:11:57.377Z,29.33
2019-06-01T10:14:32.113Z,29.99
2019-06-01T10:17:05.712Z,28.86
2019-06-01T10:19:58.769Z,29.10
2019-06-01T10:22:35.074Z,27.75
2019-06-01T10:25:13.557Z,29.19
2019-06-01T10:27:47.522Z,29.00
2019-06-01T10:30:23.570Z,29.74
2019-06-01T10:32:58.556Z,29.98
2019-06-01T10:35:35.024Z,29.19
2019-06-01T10:38:12.373Z,31.19
2019-06-01T10:40:46.545Z,31.70
2019-06-01T10:43:21.901Z,29.27
2019-06-01T10:45:57.068Z,31.43
2019-06-01T10:48:32.858Z,30.32
2019-06-01T10:51:09.719Z,30.69
2019-06-01T10:53:43.813Z,30.59
2019-06-01T10:56:18.226Z,30.80
2019-06-01T10:58:59.887Z,31.06
2019-06-01T11:01:28.265Z,30.65
2019-06-01T11:04:02.377Z,30.51
2019-06-01T11:06:43.345Z,30.27
2019-06-01T11:09:13.462Z,29.74
2019-06-01T11:11:47.302Z,29.74
2019-06-01T11:14:21.159Z,30.28
2019-06-01T11:16:56.406Z,30.34
2019-06-01T11:19:29.923Z,31.36
2019-06-01T11:22:04.587Z,29.23
2019-06-01T11:24:39.445Z,31.28
2019-06-01T11:27:14.722Z,29.89
2019-06-01T11:29:51.430Z,31.78
2019-06-01T11:32:26.226Z,31.45
2019-06-01T11:35:01.640Z,32.44
2019-06-01T11:37:38.449Z,31.35
2019-06-01T11:40:14.478Z,31.72
2019-06-01T11:42:48.711Z,32.54
2019-06-01T11:45:23.943Z,31.04
2019-06-01T11:47:59.262Z,31.60
2019-06-01T11:50:35.210Z,32.21
2019-06-01T11:53:08.888Z,31.43
2019-06-01T11:55:43.365Z,31.64
2019-06-01T11:58:18.658Z,31.11
2019-06-01T12:00:53.431Z,32.26
2019-06-01T12:03:27.006Z,31.56
2019-06-01T12:06:02.200Z,32.42
2019-06-01T12:08:36.306Z,33.14
2019-06-01T12:11:10.216Z,32.53
2019-06-01T12:13:44.484Z,32.33
2019-06-01T12:16:20.210Z,32.29
2019-06-01T12:18:55.161Z,32.50
2019-06-01T12:21:29.550Z,32.49
2019-06-01T12:24:04.047Z,32.63
2019-06-01T12:26:39.329Z,30.74
2019-06-01T12:29:17.092Z,32.25
2019-06-01T12:31:52.725Z,33.96
2019-06-01T12:34:27.940Z,33.54
2019-06-01T12:37:03.676Z,32.65
2019-06-01T12:39:38.803Z,31.58
2019-06-01T12:42:13.774Z,33.20
2019-06-01T12:44:48.960Z,32.28
2019-06-01T12:47:24.146Z,33.25
2019-06-01T12:49:59.339Z,33.94
2019-06-01T12:52:34.193Z,32.75
2019-06-01T12:55:08.743Z,33.31
2019-06-01T12:57:42.901Z,33.28
2019-06-01T13:00:18.141Z,34.18
2019-06-01T13:03:03.850Z,34.18
2019-06-01T13:05:28.678Z,33.49
2019-06-01T13:08:05.373Z,34.90
2019-06-01T13:10:39.009Z,33.65
2019-06-01T13:13:15.892Z,33.30
2019-06-01T13:15:51.414Z,32.44
2019-06-01T13:18:27.004Z,33.08
2019-06-01T13:21:02.098Z,34.03
2019-06-01T13:23:37.050Z,35.00
2019-06-01T13:26:12.509Z,34.01
2019-06-01T13:28:46.915Z,34.19
2019-06-01T13:31:22.228Z,34.28
2019-06-01T13:33:56.097Z,33.95
2019-06-01T13:36:31.108Z,34.88
2019-06-01T13:39:04.719Z,34.70
2019-06-01T13:41:40.316Z,35.07
2019-06-01T13:44:15.726Z,35.93
2019-06-01T13:46:49.488Z,35.26
2019-06-01T13:49:26.103Z,35.48
2019-06-01T13:52:11.833Z,34.45
2019-06-01T13:54:48.342Z,35.36
2019-06-01T13:57:22.071Z,35.17
2019-06-01T13:59:55.583Z,36.57
2019-06-01T14:02:30.630Z,36.46
2019-06-01T14:05:23.977Z,36.28
2019-06-01T14:07:57.944Z,36.95
2019-06-01T14:10:33.818Z,37.22
2019-06-01T14:13:09.325Z,36.09
2019-06-01T14:15:47.349Z,37.21
2019-06-01T14:18:23.349Z,36.63
2019-06-01T14:20:57.430Z,37.36
2019-06-01T14:23:33.035Z,37.32
2019-06-01T14:26:08.710Z,37.69
2019-06-01T14:31:53.630Z,37.25
2019-06-01T14:34:32.849Z,37.87
2019-06-01T14:37:07.091Z,36.88
2019-06-01T14:39:40.766Z,37.25
2019-06-01T14:42:29.391Z,37.47
2019-06-01T14:45:22.149Z,37.19
2019-06-01T14:48:00.709Z,37.22
2019-06-01T14:50:40.843Z,38.44
2019-06-01T14:53:15.168Z,36.71
2019-06-01T14:55:49.692Z,38.65
2019-06-01T14:58:27.264Z,37.58
2019-06-01T15:00:59.262Z,38.30
2019-06-01T15:03:34.184Z,38.84
2019-06-01T15:09:27.588Z,38.39
2019-06-01T15:12:07.588Z,38.36
2019-06-01T15:14:45.419Z,39.23
2019-06-01T15:17:22.245Z,38.85
2019-06-01T15:20:13.780Z,38.95
2019-06-01T15:22:50.145Z,38.37
2019-06-01T15:25:24.061Z,39.23
2019-06-01T15:27:59.361Z,39.22
2019-06-01T15:30:36.590Z,39.55
2019-06-01T15:33:16.785Z,39.30
2019-06-01T15:35:52.200Z,40.12
2019-06-01T15:38:29.839Z,41.11
2019-06-01T15:41:03.510Z,40.80
2019-06-01T15:43:37.146Z,41.98
2019-06-01T15:46:11.243Z,40.75
2019-06-01T15:48:46.822Z,40.94
2019-06-01T15:51:23.211Z,41.71
2019-06-01T15:53:56.968Z,41.14
2019-06-01T15:56:30.792Z,41.21
2019-06-01T15:59:04.776Z,41.33
2019-06-01T16:01:40.023Z,41.86
2019-06-01T16:04:15.435Z,42.33
2019-06-01T16:06:49.151Z,42.37
2019-06-01T16:09:41.338Z,43.45
2019-06-01T16:11:59.932Z,42.44
2019-06-01T16:14:33.631Z,42.36
2019-06-01T16:17:07.558Z,43.41
2019-06-01T16:19:42.587Z,43.66
2019-06-01T16:22:20.870Z,43.61
2019-06-01T16:25:15.602Z,43.18
2019-06-01T16:27:50.939Z,42.14
2019-06-01T16:30:25.949Z,43.83
2019-06-01T16:33:02.831Z,44.10
2019-06-01T16:35:36.507Z,44.01
2019-06-01T16:38:10.163Z,44.15
2019-06-01T16:40:44.035Z,44.66
2019-06-01T16:43:19.884Z,44.45
2019-06-01T16:45:53.722Z,43.74
2019-06-01T16:48:27.794Z,43.98
2019-06-01T16:51:04.075Z,44.90
2019-06-01T16:53:39.384Z,45.43
2019-06-01T16:56:14.505Z,45.51
2019-06-01T16:58:48.409Z,45.31
2019-06-01T17:01:23.772Z,44.71
2019-06-01T17:03:58.277Z,44.49
2019-06-01T17:06:32.521Z,45.14
2019-06-01T17:09:07.652Z,45.51
2019-06-01T17:11:42.100Z,45.05
2019-06-01T17:14:15.724Z,45.43
2019-06-01T17:16:49.517Z,45.72
2019-06-01T17:19:25.257Z,45.16
2019-06-01T17:21:59.371Z,45.40
2019-06-01T17:24:33.469Z,45.63
2019-06-01T17:27:08.241Z,46.35
2019-06-01T17:29:42.032Z,45.81
2019-06-01T17:32:23.958Z,46.31
2019-06-01T17:34:52.761Z,46.77
2019-06-01T17:37:28.638Z,46.88
2019-06-01T17:40:02.630Z,46.61
2019-06-01T17:42:37.831Z,47.13
2019-06-01T17:45:13.306Z,47.60
2019-06-01T17:47:48.704Z,48.15
2019-06-01T17:50:24.885Z,48.47
2019-06-01T17:53:00.554Z,48.81
2019-06-01T17:55:39.579Z,49.18
2019-06-01T17:58:15.107Z,49.16
2019-06-01T18:00:50.759Z,49.51
2019-06-01T18:03:26.151Z,49.46
2019-06-01T18:06:01.633Z,50.17
2019-06-01T18:08:35.296Z,49.88
2019-06-01T18:11:10.628Z,50.46
2019-06-01T18:13:45.831Z,50.62
2019-06-01T18:16:19.692Z,51.09
2019-06-01T18:18:54.996Z,50.65
2019-06-01T18:21:28.814Z,51.03
2019-06-01T18:24:04.341Z,51.32
2019-06-01T18:26:37.450Z,51.73
2019-06-01T18:29:12.801Z,51.38
2019-06-01T18:31:46.751Z,51.61
2019-06-01T18:34:20.464Z,51.63
2019-06-01T18:36:54.340Z,51.85
2019-06-01T18:39:28.125Z,51.57
2019-06-01T18:42:01.946Z,51.99
2019-06-01T18:44:35.887Z,52.51
2019-06-01T18:47:10.014Z,52.49
2019-06-01T18:49:44.972Z,52.12
2019-06-01T18:52:18.745Z,52.56
2019-06-01T18:54:52.523Z,52.02
2019-06-01T18:57:27.348Z,52.67
2019-06-01T19:00:01.042Z,52.27
2019-06-01T19:02:36.023Z,52.31
2019-06-01T19:05:13.613Z,53.47
2019-06-01T19:07:47.910Z,52.90
2019-06-01T19:10:21.769Z,53.25
2019-06-01T19:12:55.926Z,52.64
2019-06-01T19:15:29.688Z,53.11
2019-06-01T19:18:06.223Z,53.31
2019-06-01T19:20:40.195Z,53.67
2019-06-01T19:23:14.772Z,53.42
2019-06-01T19:25:51.014Z,53.35
2019-06-01T19:28:24.801Z,53.18
2019-06-01T19:31:00.040Z,52.97
2019-06-01T19:33:35.060Z,53.15
2019-06-01T19:36:08.898Z,53.31
2019-06-01T19:38:46.092Z,53.47
2019-06-01T19:41:20.020Z,53.59
2019-06-01T19:43:53.993Z,53.39
2019-06-01T19:46:29.413Z,53.25
2019-06-01T19:49:04.543Z,53.29
2019-06-01T19:51:38.378Z,52.57
2019-06-01T19:54:15.320Z,53.36
2019-06-01T19:57:09.894Z,53.03
2019-06-01T19:59:44.851Z,52.98
2019-06-01T20:02:32.816Z,53.29
2019-06-01T20:04:57.125Z,53.12
2019-06-01T20:07:32.195Z,53.27
2019-06-01T20:10:06.814Z,52.62
2019-06-01T20:12:42.304Z,52.25
2019-06-01T20:15:19.514Z,52.67
2019-06-01T20:17:55.104Z,52.62
2019-06-01T20:20:30.967Z,52.40
2019-06-01T20:23:04.800Z,52.26
2019-06-01T20:25:39.891Z,52.21
2019-06-01T20:28:13.828Z,52.14
2019-06-01T20:30:48.342Z,52.08
2019-06-01T20:33:23.508Z,51.80
2019-06-01T20:35:57.312Z,50.91
2019-06-01T20:38:33.023Z,51.75
2019-06-01T20:41:08.287Z,51.38
2019-06-01T20:43:44.451Z,52.33
2019-06-01T20:46:18.850Z,52.44
2019-06-01T20:48:52.795Z,51.55
2019-06-01T20:51:28.181Z,51.79
2019-06-01T20:54:23.402Z,51.75
2019-06-01T20:56:57.294Z,50.86
2019-06-01T20:59:32.231Z,51.35
2019-06-01T21:02:08.138Z,50.17
2019-06-01T21:04:43.591Z,51.04
2019-06-01T21:07:19.838Z,51.21
2019-06-01T21:09:55.145Z,51.31
2019-06-01T21:12:44.045Z,50.71
2019-06-01T21:15:05.612Z,50.76
2019-06-01T21:17:44.968Z,51.29
2019-06-01T21:20:24.738Z,50.79
2019-06-01T21:22:55.444Z,50.64
2019-06-01T21:25:30.622Z,51.35
2019-06-01T21:28:06.711Z,51.16
2019-06-01T21:30:40.490Z,51.59
2019-06-01T21:33:15.558Z,50.84
2019-06-01T21:35:49.560Z,50.43
2019-06-01T21:38:25.637Z,49.47
2019-06-01T21:41:02.165Z,50.76
2019-06-01T21:43:37.562Z,51.24
2019-06-01T21:46:11.411Z,50.01
2019-06-01T21:48:46.585Z,50.59
2019-06-01T21:51:21.770Z,50.13
2019-06-01T21:53:55.715Z,51.10
2019-06-01T21:56:30.852Z,49.59
2019-06-01T21:59:05.214Z,50.42
2019-06-01T22:01:39.637Z,50.35
2019-06-01T22:04:14.627Z,51.20
2019-06-01T22:06:50.006Z,49.50
2019-06-01T22:09:25.262Z,49.12
2019-06-01T22:11:59.325Z,50.04
2019-06-01T22:14:34.419Z,49.66
2019-06-01T22:17:08.223Z,48.94
2019-06-01T22:19:45.470Z,48.05
2019-06-01T22:22:19.612Z,48.22
2019-06-01T22:24:54.988Z,48.44
2019-06-01T22:27:28.616Z,47.62
2019-06-01T22:30:02.667Z,47.51
2019-06-01T22:32:37.834Z,49.17
2019-06-01T22:35:15.737Z,49.19
2019-06-01T22:37:51.298Z,47.97
2019-06-01T22:40:25.361Z,47.87
2019-06-01T22:42:59.110Z,48.02
2019-06-01T22:45:34.213Z,46.79
2019-06-01T22:48:09.890Z,47.57
2019-06-01T22:50:43.653Z,46.94
2019-06-01T22:53:17.429Z,46.71
2019-06-01T22:55:51.105Z,48.30
2019-06-01T22:58:25.303Z,47.27
2019-06-01T23:01:00.665Z,45.49
2019-06-01T23:03:34.648Z,45.61
2019-06-01T23:06:10.110Z,44.71
2019-06-01T23:08:45.270Z,45.83
2019-06-01T23:11:21.327Z,44.41
2019-06-01T23:13:55.016Z,45.23
2019-06-01T23:16:30.279Z,43.63
2019-06-01T23:19:05.946Z,44.63
2019-06-01T23:21:41.211Z,44.15
2019-06-01T23:24:16.245Z,41.98
2019-06-01T23:26:51.756Z,41.04
2019-06-01T23:29:28.021Z,41.06
2019-06-01T23:32:08.925Z,40.03
2019-06-01T23:34:47.644Z,39.79
2019-06-01T23:37:22.606Z,37.83
2019-06-01T23:39:57.596Z,37.87
2019-06-01T23:42:32.960Z,37.69
2019-06-01T23:45:09.545Z,36.89
2019-06-01T23:47:45.047Z,37.40
2019-06-01T23:50:20.500Z,36.11
2019-06-01T23:53:04.546Z,37.60
2019-06-01T23:55:38.260Z,36.16
2019-06-01T23:58:13.085Z,37.13
